Ohio State University Airport Columbus US
ICAO: KOSU
IATA: OSU
Category: Medium
Scheduled Services: No

Elevation: 905 ft
TransAlt. 18000 ft.

Airport Communications:
COLUMBUS APP/DEP:120.2
ATIS:121.35
CTAF:118.8
GND/CLNC DEL:121.7
TWR:118.8
UNICOM:122.95

KOSU Zoom In..

If you have problems with the map follow the link
https://www.worldairports.se/pages/airport.php?
ICAO=KOSU

Runways:

(A) RW 05 length 3562 ft width 100 ft
---- / hdg 54

(B) RW 09L length 2994 ft width 100 ft
---- / hdg 92

(C) RW 09R length 5004 ft width 100 ft
ILS 108.50 / hdg 92

(D) RW 14 length 3049 ft width 100 ft
---- / hdg 141

(E) RW 23 length 3562 ft width 100 ft
---- / hdg 234

(F) RW 27L length 5004 ft width 100 ft
---- / hdg 272

(G) RW 27R length 2994 ft width 100 ft
---- / hdg 272

(H) RW 32 length 3049 ft width 100 ft
---- / hdg 321

Location; KOSU
Day. 10 / Time. 01.55 Zulu
* Altimeter: 29.60
* Temperature: 13° c. 55.4°f.
* Wind from: 220° Speed 14 kn with Gusts up to 20 kn.
Dewpoint: 11° c.
Visibility: 2 m.
Clouds: Scattered 1400 ft.
Clouds: Broken 2200 ft.
Clouds: Overcast 3300 ft.
Conditions: Rain.Conditions: Mist.

KOSU 100155Z 22014G20KT 2 1/2SM RA BR SCT014 BKN022 OVC033 13/11 A2960 RMK AO2 P0001 T01330111


Wind From 220°
Speed 14 kn.

 
 
jpsmedia worldairports.se 2019   terms of use